sensor_id;sensor_type;location;lat;lon;timestamp;pressure;altitude;pressure_sealevel;temperature;humidity
26775;BME280;14362;51.902;7.626;2023-03-21T00:00:09;101071.16;;;9.55;100.00
26775;BME280;14362;51.902;7.626;2023-03-21T00:04:12;101069.72;;;9.57;100.00
26775;BME280;14362;51.902;7.626;2023-03-21T00:08:14;101069.72;;;9.57;100.00
26775;BME280;14362;51.902;7.626;2023-03-21T00:12:16;101061.91;;;9.59;100.00
26775;BME280;14362;51.902;7.626;2023-03-21T00:16:20;101065.19;;;9.61;100.00
26775;BME280;14362;51.902;7.626;2023-03-21T00:20:21;101060.75;;;9.60;100.00
26775;BME280;14362;51.902;7.626;2023-03-21T00:24:24;101057.34;;;9.63;100.00
26775;BME280;14362;51.902;7.626;2023-03-21T00:28:28;101057.34;;;9.63;100.00
26775;BME280;14362;51.902;7.626;2023-03-21T00:32:30;101050.97;;;9.63;100.00
26775;BME280;14362;51.902;7.626;2023-03-21T00:36:31;101039.03;;;9.62;100.00
26775;BME280;14362;51.902;7.626;2023-03-21T00:40:34;101039.81;;;9.63;100.00
26775;BME280;14362;51.902;7.626;2023-03-21T00:44:35;101032.81;;;9.65;100.00
26775;BME280;14362;51.902;7.626;2023-03-21T00:48:39;101033.66;;;9.66;100.00
26775;BME280;14362;51.902;7.626;2023-03-21T00:52:40;101038.69;;;9.64;100.00
26775;BME280;14362;51.902;7.626;2023-03-21T00:56:43;101020.16;;;9.59;100.00
26775;BME280;14362;51.902;7.626;2023-03-21T01:00:45;101022.31;;;9.62;100.00
26775;BME280;14362;51.902;7.626;2023-03-21T01:04:47;101023.44;;;9.61;100.00
26775;BME280;14362;51.902;7.626;2023-03-21T01:08:48;101012.63;;;9.60;100.00
26775;BME280;14362;51.902;7.626;2023-03-21T01:12:51;101012.31;;;9.61;100.00
26775;BME280;14362;51.902;7.626;2023-03-21T01:16:53;101010.16;;;9.58;100.00
26775;BME280;14362;51.902;7.626;2023-03-21T01:20:56;101006.84;;;9.56;100.00
26775;BME280;14362;51.902;7.626;2023-03-21T01:24:58;101004.38;;;9.55;100.00
26775;BME280;14362;51.902;7.626;2023-03-21T01:29:02;101002.94;;;9.57;100.00
26775;BME280;14362;51.902;7.626;2023-03-21T01:33:03;101008.50;;;9.57;100.00
26775;BME280;14362;51.902;7.626;2023-03-21T01:37:05;100996.44;;;9.62;100.00
26775;BME280;14362;51.902;7.626;2023-03-21T01:41:06;100998.41;;;9.61;100.00
26775;BME280;14362;51.902;7.626;2023-03-21T01:49:46;100988.09;;;9.62;100.00
26775;BME280;14362;51.902;7.626;2023-03-21T01:53:49;100991.72;;;9.62;100.00
26775;BME280;14362;51.902;7.626;2023-03-21T01:57:53;100983.34;;;9.62;100.00
26775;BME280;14362;51.902;7.626;2023-03-21T02:01:58;100976.53;;;9.68;100.00
26775;BME280;14362;51.902;7.626;2023-03-21T02:06:06;100974.88;;;9.67;100.00
26775;BME280;14362;51.902;7.626;2023-03-21T02:10:11;100974.88;;;9.67;100.00
26775;BME280;14362;51.902;7.626;2023-03-21T02:14:16;100964.56;;;9.68;100.00
26775;BME280;14362;51.902;7.626;2023-03-21T02:18:24;100955.91;;;9.69;100.00
26775;BME280;14362;51.902;7.626;2023-03-21T02:23:00;100955.38;;;9.67;100.00
26775;BME280;14362;51.902;7.626;2023-03-21T02:27:10;100950.34;;;9.69;100.00
26775;BME280;14362;51.902;7.626;2023-03-21T02:31:23;100947.66;;;9.64;100.00
26775;BME280;14362;51.902;7.626;2023-03-21T02:35:34;100953.75;;;9.66;100.00
26775;BME280;14362;51.902;7.626;2023-03-21T02:39:52;100948.19;;;9.66;100.00
26775;BME280;14362;51.902;7.626;2023-03-21T02:43:58;100943.75;;;9.65;100.00
26775;BME280;14362;51.902;7.626;2023-03-21T02:48:08;100943.00;;;9.73;100.00
26775;BME280;14362;51.902;7.626;2023-03-21T02:52:14;100938.06;;;9.70;100.00
26775;BME280;14362;51.902;7.626;2023-03-21T02:56:21;100944.78;;;9.69;100.00
26775;BME280;14362;51.902;7.626;2023-03-21T03:00:27;100934.47;;;9.70;100.00
26775;BME280;14362;51.902;7.626;2023-03-21T03:04:29;100949.72;;;9.72;100.00
26775;BME280;14362;51.902;7.626;2023-03-21T03:08:35;100940.84;;;9.70;100.00
26775;BME280;14362;51.902;7.626;2023-03-21T03:12:46;100937.38;;;9.65;100.00
26775;BME280;14362;51.902;7.626;2023-03-21T03:16:58;100930.16;;;9.64;100.00
26775;BME280;14362;51.902;7.626;2023-03-21T03:21:07;100925.41;;;9.64;100.00
26775;BME280;14362;51.902;7.626;2023-03-21T03:25:13;100930.03;;;9.69;100.00
26775;BME280;14362;51.902;7.626;2023-03-21T03:29:19;100939.19;;;9.69;100.00
26775;BME280;14362;51.902;7.626;2023-03-21T03:33:24;100933.13;;;9.67;100.00
26775;BME280;14362;51.902;7.626;2023-03-21T03:37:28;100923.44;;;9.65;100.00
26775;BME280;14362;51.902;7.626;2023-03-21T03:41:34;100917.38;;;9.63;100.00
26775;BME280;14362;51.902;7.626;2023-03-21T03:45:43;100920.97;;;9.63;100.00
26775;BME280;14362;51.902;7.626;2023-03-21T03:49:53;100911.81;;;9.63;100.00
26775;BME280;14362;51.902;7.626;2023-03-21T03:54:00;100920.78;;;9.60;100.00
26775;BME280;14362;51.902;7.626;2023-03-21T03:58:03;100919.47;;;9.57;100.00
26775;BME280;14362;51.902;7.626;2023-03-21T04:02:06;100925.03;;;9.57;100.00
26775;BME280;14362;51.902;7.626;2023-03-21T04:06:08;100914.41;;;9.59;100.00
26775;BME280;14362;51.902;7.626;2023-03-21T04:10:10;100914.06;;;9.61;100.00
26775;BME280;14362;51.902;7.626;2023-03-21T04:14:12;100912.94;;;9.62;100.00
26775;BME280;14362;51.902;7.626;2023-03-21T04:18:14;100903.13;;;9.64;100.00
26775;BME280;14362;51.902;7.626;2023-03-21T04:22:16;100896.13;;;9.67;100.00
26775;BME280;14362;51.902;7.626;2023-03-21T04:26:17;100896.66;;;9.69;100.00
26775;BME280;14362;51.902;7.626;2023-03-21T04:30:20;100895.28;;;9.66;100.00
26775;BME280;14362;51.902;7.626;2023-03-21T04:34:25;100902.00;;;9.65;100.00
26775;BME280;14362;51.902;7.626;2023-03-21T04:38:27;100892.84;;;9.65;100.00
26775;BME280;14362;51.902;7.626;2023-03-21T04:42:29;100884.31;;;9.61;100.00
26775;BME280;14362;51.902;7.626;2023-03-21T04:46:31;100881.81;;;9.60;100.00
26775;BME280;14362;51.902;7.626;2023-03-21T04:50:34;100867.09;;;9.59;100.00
26775;BME280;14362;51.902;7.626;2023-03-21T04:54:35;100872.44;;;9.56;100.00
26775;BME280;14362;51.902;7.626;2023-03-21T04:58:37;100884.72;;;9.55;100.00
26775;BME280;14362;51.902;7.626;2023-03-21T05:02:39;100882.25;;;9.53;100.00
26775;BME280;14362;51.902;7.626;2023-03-21T05:06:43;100879.66;;;9.57;100.00
26775;BME280;14362;51.902;7.626;2023-03-21T05:10:45;100875.56;;;9.54;100.00
26775;BME280;14362;51.902;7.626;2023-03-21T05:14:46;100872.44;;;9.56;100.00
26775;BME280;14362;51.902;7.626;2023-03-21T05:18:48;100879.47;;;9.53;100.00
26775;BME280;14362;51.902;7.626;2023-03-21T05:22:51;100873.28;;;9.56;100.00
26775;BME280;14362;51.902;7.626;2023-03-21T05:26:52;100863.81;;;9.57;100.00
26775;BME280;14362;51.902;7.626;2023-03-21T05:30:55;100878.53;;;9.58;100.00
26775;BME280;14362;51.902;7.626;2023-03-21T05:34:56;100882.16;;;9.58;100.00
26775;BME280;14362;51.902;7.626;2023-03-21T05:38:59;100878.22;;;9.59;100.00
26775;BME280;14362;51.902;7.626;2023-03-21T05:43:01;100880.38;;;9.62;100.00
26775;BME280;14362;51.902;7.626;2023-03-21T05:47:02;100874.31;;;9.60;100.00
26775;BME280;14362;51.902;7.626;2023-03-21T05:51:05;100882.34;;;9.62;100.00
26775;BME280;14362;51.902;7.626;2023-03-21T05:55:08;100886.75;;;9.63;100.00
26775;BME280;14362;51.902;7.626;2023-03-21T05:59:10;100883.66;;;9.64;100.00
26775;BME280;14362;51.902;7.626;2023-03-21T06:03:11;100884.16;;;9.66;100.00
26775;BME280;14362;51.902;7.626;2023-03-21T06:07:13;100889.94;;;9.70;100.00
26775;BME280;14362;51.902;7.626;2023-03-21T06:11:19;100893.03;;;9.68;100.00
26775;BME280;14362;51.902;7.626;2023-03-21T06:15:23;100885.19;;;9.70;100.00
26775;BME280;14362;51.902;7.626;2023-03-21T06:19:25;100892.72;;;9.70;100.00
26775;BME280;14362;51.902;7.626;2023-03-21T06:23:27;100890.88;;;9.65;100.00
26775;BME280;14362;51.902;7.626;2023-03-21T06:27:30;100891.88;;;9.69;100.00
26775;BME280;14362;51.902;7.626;2023-03-21T06:31:31;100895.28;;;9.66;100.00
26775;BME280;14362;51.902;7.626;2023-03-21T06:35:32;100901.88;;;9.70;100.00
26775;BME280;14362;51.902;7.626;2023-03-21T06:39:34;100899.28;;;9.74;100.00
26775;BME280;14362;51.902;7.626;2023-03-21T06:43:37;100893.41;;;9.75;100.00
26775;BME280;14362;51.902;7.626;2023-03-21T06:47:38;100901.44;;;9.77;100.00
26775;BME280;14362;51.902;7.626;2023-03-21T06:51:40;100896.72;;;9.77;100.00
26775;BME280;14362;51.902;7.626;2023-03-21T06:55:41;100898.88;;;9.80;100.00
26775;BME280;14362;51.902;7.626;2023-03-21T06:59:44;100894.63;;;9.83;100.00
26775;BME280;14362;51.902;7.626;2023-03-21T07:03:46;100896.28;;;9.84;100.00
26775;BME280;14362;51.902;7.626;2023-03-21T07:07:48;100897.09;;;9.84;100.00
26775;BME280;14362;51.902;7.626;2023-03-21T07:11:49;100896.66;;;9.91;100.00
26775;BME280;14362;51.902;7.626;2023-03-21T07:15:54;100902.72;;;9.93;100.00
26775;BME280;14362;51.902;7.626;2023-03-21T07:19:55;100891.41;;;9.89;100.00
26775;BME280;14362;51.902;7.626;2023-03-21T07:23:56;100895.19;;;9.93;100.00
26775;BME280;14362;51.902;7.626;2023-03-21T07:27:58;100901.06;;;9.92;100.00
26775;BME280;14362;51.902;7.626;2023-03-21T07:32:01;100899.31;;;9.96;100.00
26775;BME280;14362;51.902;7.626;2023-03-21T07:36:02;100904.69;;;9.92;100.00
26775;BME280;14362;51.902;7.626;2023-03-21T07:40:05;100907.41;;;9.84;100.00
26775;BME280;14362;51.902;7.626;2023-03-21T07:44:09;100906.09;;;9.81;100.00
26775;BME280;14362;51.902;7.626;2023-03-21T07:48:13;100902.13;;;9.82;100.00
26775;BME280;14362;51.902;7.626;2023-03-21T07:52:16;100911.00;;;9.84;100.00
26775;BME280;14362;51.902;7.626;2023-03-21T07:56:17;100904.00;;;9.87;100.00
26775;BME280;14362;51.902;7.626;2023-03-21T08:00:20;100896.16;;;9.89;100.00
26775;BME280;14362;51.902;7.626;2023-03-21T08:04:24;100893.22;;;9.94;100.00
26775;BME280;14362;51.902;7.626;2023-03-21T08:08:27;100897.03;;;9.98;100.00
26775;BME280;14362;51.902;7.626;2023-03-21T08:12:28;100898.88;;;10.02;100.00
26775;BME280;14362;51.902;7.626;2023-03-21T08:16:30;100900.13;;;10.10;100.00
26775;BME280;14362;51.902;7.626;2023-03-21T08:20:33;100896.50;;;10.09;100.00
26775;BME280;14362;51.902;7.626;2023-03-21T08:24:34;100900.41;;;10.08;100.00
26775;BME280;14362;51.902;7.626;2023-03-21T08:28:36;100903.72;;;10.10;100.00
26775;BME280;14362;51.902;7.626;2023-03-21T08:32:38;100889.34;;;10.17;100.00
26775;BME280;14362;51.902;7.626;2023-03-21T08:36:42;100886.72;;;10.20;100.00
26775;BME280;14362;51.902;7.626;2023-03-21T08:40:44;100892.81;;;10.22;100.00
26775;BME280;14362;51.902;7.626;2023-03-21T08:44:45;100898.00;;;10.37;100.00
26775;BME280;14362;51.902;7.626;2023-03-21T08:48:47;100891.38;;;10.55;100.00
26775;BME280;14362;51.902;7.626;2023-03-21T08:52:49;100905.75;;;10.48;100.00
26775;BME280;14362;51.902;7.626;2023-03-21T08:56:51;100899.75;;;10.55;100.00
26775;BME280;14362;51.902;7.626;2023-03-21T09:00:52;100893.66;;;10.53;100.00
26775;BME280;14362;51.902;7.626;2023-03-21T09:04:54;100888.28;;;10.65;100.00
26775;BME280;14362;51.902;7.626;2023-03-21T09:08:59;100887.78;;;10.63;100.00
26775;BME280;14362;51.902;7.626;2023-03-21T09:13:00;100884.03;;;10.67;100.00
26775;BME280;14362;51.902;7.626;2023-03-21T09:17:02;100883.84;;;10.64;100.00
26775;BME280;14362;51.902;7.626;2023-03-21T09:21:08;100879.47;;;10.71;100.00
26775;BME280;14362;51.902;7.626;2023-03-21T09:25:13;100878.03;;;10.82;100.00
26775;BME280;14362;51.902;7.626;2023-03-21T09:29:15;100879.56;;;10.97;100.00
26775;BME280;14362;51.902;7.626;2023-03-21T09:33:18;100881.06;;;11.03;100.00
26775;BME280;14362;51.902;7.626;2023-03-21T09:37:20;100885.88;;;11.19;100.00
26775;BME280;14362;51.902;7.626;2023-03-21T09:41:44;100877.50;;;11.27;100.00
26775;BME280;14362;51.902;7.626;2023-03-21T09:45:57;100871.44;;;11.34;100.00
26775;BME280;14362;51.902;7.626;2023-03-21T09:50:02;100877.03;;;11.34;100.00
26775;BME280;14362;51.902;7.626;2023-03-21T09:54:07;100870.28;;;11.26;100.00
26775;BME280;14362;51.902;7.626;2023-03-21T09:58:22;100880.78;;;11.21;100.00
26775;BME280;14362;51.902;7.626;2023-03-21T10:02:34;100877.50;;;11.27;100.00
26775;BME280;14362;51.902;7.626;2023-03-21T10:06:39;100876.38;;;11.37;100.00
26775;BME280;14362;51.902;7.626;2023-03-21T10:10:45;100868.16;;;11.40;100.00
26775;BME280;14362;51.902;7.626;2023-03-21T10:14:50;100873.00;;;11.57;100.00
26775;BME280;14362;51.902;7.626;2023-03-21T10:18:53;100870.19;;;11.65;100.00
26775;BME280;14362;51.902;7.626;2023-03-21T10:22:55;100874.78;;;11.61;100.00
26775;BME280;14362;51.902;7.626;2023-03-21T10:27:00;100872.00;;;11.61;100.00
26775;BME280;14362;51.902;7.626;2023-03-21T10:31:06;100862.97;;;11.64;100.00
26775;BME280;14362;51.902;7.626;2023-03-21T10:35:08;100869.69;;;11.72;100.00
26775;BME280;14362;51.902;7.626;2023-03-21T10:39:20;100863.47;;;11.66;100.00
26775;BME280;14362;51.902;7.626;2023-03-21T10:43:33;100858.84;;;11.70;100.00
26775;BME280;14362;51.902;7.626;2023-03-21T10:47:38;100853.75;;;11.64;100.00
26775;BME280;14362;51.902;7.626;2023-03-21T10:51:39;100848.03;;;11.60;100.00
26775;BME280;14362;51.902;7.626;2023-03-21T10:55:41;100838.34;;;11.66;100.00
26775;BME280;14362;51.902;7.626;2023-03-21T10:59:48;100831.75;;;11.62;100.00
26775;BME280;14362;51.902;7.626;2023-03-21T11:03:57;100837.63;;;11.52;100.00
26775;BME280;14362;51.902;7.626;2023-03-21T11:08:02;100831.59;;;11.50;100.00
26775;BME280;14362;51.902;7.626;2023-03-21T11:12:10;100825.03;;;11.55;100.00
26775;BME280;14362;51.902;7.626;2023-03-21T11:16:20;100823.53;;;11.57;100.00
26775;BME280;14362;51.902;7.626;2023-03-21T11:20:25;100824.03;;;11.59;100.00
26775;BME280;14362;51.902;7.626;2023-03-21T11:24:29;100819.59;;;11.58;100.00
26775;BME280;14362;51.902;7.626;2023-03-21T11:28:35;100814.84;;;11.67;100.00
26775;BME280;14362;51.902;7.626;2023-03-21T11:32:37;100801.03;;;11.79;100.00
26775;BME280;14362;51.902;7.626;2023-03-21T11:36:40;100807.91;;;11.82;100.00
26775;BME280;14362;51.902;7.626;2023-03-21T11:40:51;100800.66;;;11.89;100.00
26775;BME280;14362;51.902;7.626;2023-03-21T11:45:00;100796.06;;;11.93;100.00
26775;BME280;14362;51.902;7.626;2023-03-21T11:49:02;100793.28;;;11.85;100.00
26775;BME280;14362;51.902;7.626;2023-03-21T11:53:21;100790.19;;;11.86;100.00
26775;BME280;14362;51.902;7.626;2023-03-21T11:57:29;100780.00;;;11.82;100.00
26775;BME280;14362;51.902;7.626;2023-03-21T12:01:41;100774.75;;;11.80;100.00
26775;BME280;14362;51.902;7.626;2023-03-21T12:05:51;100763.59;;;11.80;100.00
26775;BME280;14362;51.902;7.626;2023-03-21T12:10:06;100768.66;;;11.78;100.00
26775;BME280;14362;51.902;7.626;2023-03-21T12:14:17;100758.31;;;11.87;100.00
26775;BME280;14362;51.902;7.626;2023-03-21T12:18:36;100737.28;;;11.90;100.00
26775;BME280;14362;51.902;7.626;2023-03-21T12:22:50;100738.03;;;11.99;100.00
26775;BME280;14362;51.902;7.626;2023-03-21T12:26:58;100733.13;;;12.04;100.00
26775;BME280;14362;51.902;7.626;2023-03-21T12:31:08;100727.81;;;12.11;100.00
26775;BME280;14362;51.902;7.626;2023-03-21T12:35:23;100718.91;;;12.26;100.00
26775;BME280;14362;51.902;7.626;2023-03-21T12:39:29;100705.66;;;12.43;100.00
26775;BME280;14362;51.902;7.626;2023-03-21T12:43:41;100718.56;;;12.56;100.00
26775;BME280;14362;51.902;7.626;2023-03-21T12:47:46;100709.50;;;12.59;100.00
26775;BME280;14362;51.902;7.626;2023-03-21T12:51:52;100703.91;;;12.59;100.00
26775;BME280;14362;51.902;7.626;2023-03-21T12:55:59;100698.59;;;12.66;100.00
26775;BME280;14362;51.902;7.626;2023-03-21T13:00:08;100699.50;;;12.79;100.00
26775;BME280;14362;51.902;7.626;2023-03-21T13:04:30;100697.69;;;12.83;100.00
26775;BME280;14362;51.902;7.626;2023-03-21T13:08:36;100683.34;;;12.84;100.00
26775;BME280;14362;51.902;7.626;2023-03-21T13:12:43;100685.16;;;13.09;100.00
26775;BME280;14362;51.902;7.626;2023-03-21T13:16:51;100686.72;;;12.98;100.00
26775;BME280;14362;51.902;7.626;2023-03-21T13:20:56;100669.78;;;12.95;100.00
26775;BME280;14362;51.902;7.626;2023-03-21T13:25:03;100653.97;;;12.99;100.00
26775;BME280;14362;51.902;7.626;2023-03-21T13:29:22;100653.00;;;12.95;100.00
26775;BME280;14362;51.902;7.626;2023-03-21T13:33:28;100653.47;;;12.97;100.00
26775;BME280;14362;51.902;7.626;2023-03-21T13:37:31;100639.25;;;12.81;100.00
26775;BME280;14362;51.902;7.626;2023-03-21T13:41:35;100640.47;;;12.72;100.00
26775;BME280;14362;51.902;7.626;2023-03-21T13:45:45;100626.97;;;12.74;100.00
26775;BME280;14362;51.902;7.626;2023-03-21T13:50:23;100630.75;;;12.78;100.00
26775;BME280;14362;51.902;7.626;2023-03-21T13:54:28;100624.13;;;12.82;100.00
26775;BME280;14362;51.902;7.626;2023-03-21T13:58:32;100609.91;;;12.67;100.00
26775;BME280;14362;51.902;7.626;2023-03-21T14:02:34;100596.69;;;12.76;100.00
26775;BME280;14362;51.902;7.626;2023-03-21T14:06:42;100590.50;;;12.91;100.00
26775;BME280;14362;51.902;7.626;2023-03-21T14:10:46;100595.91;;;12.96;100.00
26775;BME280;14362;51.902;7.626;2023-03-21T14:14:52;100593.63;;;12.89;100.00
26775;BME280;14362;51.902;7.626;2023-03-21T14:18:58;100583.06;;;12.95;100.00
26775;BME280;14362;51.902;7.626;2023-03-21T14:23:02;100580.47;;;12.90;100.00
26775;BME280;14362;51.902;7.626;2023-03-21T14:27:04;100569.88;;;12.95;100.00
26775;BME280;14362;51.902;7.626;2023-03-21T14:31:06;100568.13;;;12.91;100.00
26775;BME280;14362;51.902;7.626;2023-03-21T14:35:10;100566.88;;;13.00;100.00
26775;BME280;14362;51.902;7.626;2023-03-21T14:39:16;100568.03;;;12.99;100.00
26775;BME280;14362;51.902;7.626;2023-03-21T14:43:18;100561.78;;;13.14;100.00
26775;BME280;14362;51.902;7.626;2023-03-21T14:47:23;100564.34;;;13.07;100.00
26775;BME280;14362;51.902;7.626;2023-03-21T14:51:24;100563.66;;;13.10;100.00
26775;BME280;14362;51.902;7.626;2023-03-21T14:55:27;100557.31;;;13.01;100.00
26775;BME280;14362;51.902;7.626;2023-03-21T14:59:31;100563.00;;;12.93;100.00
26775;BME280;14362;51.902;7.626;2023-03-21T15:03:34;100568.72;;;12.96;100.00
26775;BME280;14362;51.902;7.626;2023-03-21T15:07:36;100568.03;;;12.99;100.00
26775;BME280;14362;51.902;7.626;2023-03-21T15:11:39;100562.44;;;12.99;100.00
26775;BME280;14362;51.902;7.626;2023-03-21T15:15:41;100568.44;;;13.10;100.00
26775;BME280;14362;51.902;7.626;2023-03-21T15:19:43;100560.38;;;13.08;100.00
26775;BME280;14362;51.902;7.626;2023-03-21T15:23:45;100556.63;;;13.04;100.00
26775;BME280;14362;51.902;7.626;2023-03-21T15:27:49;100561.75;;;13.02;100.00
26775;BME280;14362;51.902;7.626;2023-03-21T15:31:51;100555.28;;;12.90;100.00
26775;BME280;14362;51.902;7.626;2023-03-21T15:35:53;100546.28;;;12.84;100.00
26775;BME280;14362;51.902;7.626;2023-03-21T15:40:06;100537.75;;;12.81;100.00
26775;BME280;14362;51.902;7.626;2023-03-21T15:44:13;100542.47;;;12.68;100.00
26775;BME280;14362;51.902;7.626;2023-03-21T15:48:21;100523.94;;;12.64;100.00
26775;BME280;14362;51.902;7.626;2023-03-21T15:52:25;100520.44;;;12.67;100.00
26775;BME280;14362;51.902;7.626;2023-03-21T15:56:27;100521.59;;;12.66;100.00
26775;BME280;14362;51.902;7.626;2023-03-21T16:00:37;100524.66;;;12.73;100.00
26775;BME280;14362;51.902;7.626;2023-03-21T16:04:53;100525.84;;;12.92;100.00
26775;BME280;14362;51.902;7.626;2023-03-21T16:09:04;100522.50;;;13.11;100.00
26775;BME280;14362;51.902;7.626;2023-03-21T16:13:10;100519.72;;;13.23;100.00
26775;BME280;14362;51.902;7.626;2023-03-21T16:17:22;100528.56;;;13.25;100.00
26775;BME280;14362;51.902;7.626;2023-03-21T16:21:28;100530.09;;;13.22;100.00
26775;BME280;14362;51.902;7.626;2023-03-21T16:25:31;100510.03;;;13.20;100.00
26775;BME280;14362;51.902;7.626;2023-03-21T16:29:34;100513.88;;;13.16;100.00
26775;BME280;14362;51.902;7.626;2023-03-21T16:33:37;100517.78;;;12.91;100.00
26775;BME280;14362;51.902;7.626;2023-03-21T16:37:39;100524.06;;;12.67;100.00
26775;BME280;14362;51.902;7.626;2023-03-21T16:41:40;100536.28;;;12.63;100.00
26775;BME280;14362;51.902;7.626;2023-03-21T16:45:42;100528.59;;;12.60;100.00
26775;BME280;14362;51.902;7.626;2023-03-21T16:49:45;100513.66;;;12.56;100.00
26775;BME280;14362;51.902;7.626;2023-03-21T16:53:47;100514.13;;;12.37;100.00
26775;BME280;14362;51.902;7.626;2023-03-21T16:57:51;100503.28;;;12.36;100.00
26775;BME280;14362;51.902;7.626;2023-03-21T17:01:53;100502.69;;;12.30;100.00
26775;BME280;14362;51.902;7.626;2023-03-21T17:05:55;100513.25;;;12.25;100.00
26775;BME280;14362;51.902;7.626;2023-03-21T17:09:57;100522.50;;;12.17;100.00
26775;BME280;14362;51.902;7.626;2023-03-21T17:13:58;100540.44;;;12.16;100.00
26775;BME280;14362;51.902;7.626;2023-03-21T17:18:00;100544.56;;;12.10;100.00
26775;BME280;14362;51.902;7.626;2023-03-21T17:22:03;100532.91;;;12.08;100.00
26775;BME280;14362;51.902;7.626;2023-03-21T17:26:05;100532.47;;;12.06;100.00
26775;BME280;14362;51.902;7.626;2023-03-21T17:30:15;100533.75;;;12.09;100.00
26775;BME280;14362;51.902;7.626;2023-03-21T17:34:19;100539.22;;;12.05;100.00
26775;BME280;14362;51.902;7.626;2023-03-21T17:38:21;100550.22;;;12.02;100.00
26775;BME280;14362;51.902;7.626;2023-03-21T17:42:23;100556.16;;;12.00;100.00
26775;BME280;14362;51.902;7.626;2023-03-21T17:46:26;100546.50;;;11.98;100.00
26775;BME280;14362;51.902;7.626;2023-03-21T17:50:31;100556.69;;;11.94;100.00
26775;BME280;14362;51.902;7.626;2023-03-21T17:54:36;100547.47;;;11.93;100.00
26775;BME280;14362;51.902;7.626;2023-03-21T17:58:38;100550.28;;;11.93;100.00
26775;BME280;14362;51.902;7.626;2023-03-21T18:02:40;100556.41;;;11.87;100.00
26775;BME280;14362;51.902;7.626;2023-03-21T18:06:41;100551.28;;;11.89;100.00
26775;BME280;14362;51.902;7.626;2023-03-21T18:10:44;100559.69;;;11.89;100.00
26775;BME280;14362;51.902;7.626;2023-03-21T18:14:45;100549.66;;;11.88;100.00
26775;BME280;14362;51.902;7.626;2023-03-21T18:18:47;100543.28;;;11.87;100.00
26775;BME280;14362;51.902;7.626;2023-03-21T18:22:50;100547.53;;;11.85;100.00
26775;BME280;14362;51.902;7.626;2023-03-21T18:26:53;100548.56;;;11.80;100.00
26775;BME280;14362;51.902;7.626;2023-03-21T18:30:54;100552.84;;;11.78;100.00
26775;BME280;14362;51.902;7.626;2023-03-21T18:34:56;100555.47;;;11.74;100.00
26775;BME280;14362;51.902;7.626;2023-03-21T18:38:58;100550.41;;;11.68;100.00
26775;BME280;14362;51.902;7.626;2023-03-21T18:43:03;100552.72;;;11.66;100.00
26775;BME280;14362;51.902;7.626;2023-03-21T18:47:05;100556.53;;;11.61;100.00
26775;BME280;14362;51.902;7.626;2023-03-21T18:51:07;100563.63;;;11.59;100.00
26775;BME280;14362;51.902;7.626;2023-03-21T18:55:10;100562.28;;;11.56;100.00
26775;BME280;14362;51.902;7.626;2023-03-21T18:59:15;100551.47;;;11.55;100.00
26775;BME280;14362;51.902;7.626;2023-03-21T19:03:19;100540.81;;;11.48;100.00
26775;BME280;14362;51.902;7.626;2023-03-21T19:07:20;100547.75;;;11.34;100.00
26775;BME280;14362;51.902;7.626;2023-03-21T19:11:24;100540.38;;;11.29;100.00
26775;BME280;14362;51.902;7.626;2023-03-21T19:15:27;100549.06;;;11.28;100.00
26775;BME280;14362;51.902;7.626;2023-03-21T19:19:28;100546.63;;;11.26;100.00
26775;BME280;14362;51.902;7.626;2023-03-21T19:23:30;100544.66;;;11.27;100.00
26775;BME280;14362;51.902;7.626;2023-03-21T19:27:32;100542.69;;;11.27;100.00
26775;BME280;14362;51.902;7.626;2023-03-21T19:31:35;100530.22;;;11.25;100.00
26775;BME280;14362;51.902;7.626;2023-03-21T19:35:36;100537.78;;;11.24;100.00
26775;BME280;14362;51.902;7.626;2023-03-21T19:39:40;100538.94;;;11.23;100.00
26775;BME280;14362;51.902;7.626;2023-03-21T19:43:41;100540.06;;;11.22;100.00
26775;BME280;14362;51.902;7.626;2023-03-21T19:47:44;100538.78;;;11.20;100.00
26775;BME280;14362;51.902;7.626;2023-03-21T19:51:46;100537.81;;;11.16;100.00
26775;BME280;14362;51.902;7.626;2023-03-21T19:55:49;100538.94;;;11.15;100.00
26775;BME280;14362;51.902;7.626;2023-03-21T19:59:50;100546.03;;;11.13;100.00
26775;BME280;14362;51.902;7.626;2023-03-21T20:03:55;100545.03;;;11.09;100.00
26775;BME280;14362;51.902;7.626;2023-03-21T20:07:56;100539.47;;;11.09;100.00
26775;BME280;14362;51.902;7.626;2023-03-21T20:11:57;100541.09;;;11.10;100.00
26775;BME280;14362;51.902;7.626;2023-03-21T20:16:00;100535.19;;;11.11;100.00
26775;BME280;14362;51.902;7.626;2023-03-21T20:20:04;100528.09;;;11.14;100.00
26775;BME280;14362;51.902;7.626;2023-03-21T20:24:09;100526.50;;;11.13;100.00
26775;BME280;14362;51.902;7.626;2023-03-21T20:28:12;100522.06;;;11.12;100.00
26775;BME280;14362;51.902;7.626;2023-03-21T20:32:13;100505.78;;;11.14;100.00
26775;BME280;14362;51.902;7.626;2023-03-21T20:36:17;100506.97;;;11.13;100.00
26775;BME280;14362;51.902;7.626;2023-03-21T20:40:19;100511.56;;;11.09;100.00
26775;BME280;14362;51.902;7.626;2023-03-21T20:44:21;100506.50;;;11.02;100.00
26775;BME280;14362;51.902;7.626;2023-03-21T20:48:23;100514.41;;;10.92;100.00
26775;BME280;14362;51.902;7.626;2023-03-21T20:52:26;100514.75;;;10.82;100.00
26775;BME280;14362;51.902;7.626;2023-03-21T20:56:28;100516.75;;;10.73;100.00
26775;BME280;14362;51.902;7.626;2023-03-21T21:00:30;100506.75;;;10.63;100.00
26775;BME280;14362;51.902;7.626;2023-03-21T21:04:33;100524.31;;;10.55;100.00
26775;BME280;14362;51.902;7.626;2023-03-21T21:08:36;100522.81;;;10.49;100.00